KZR320 UAAA-OPSD
Flight info
| Callsign | KZR320 |
|---|---|
| Flight time | N/A |
| Altitude | 36000 |
| Route | LAKEL1B LAKEL L135 OSH L142 POMIR/K0848F350 Z407 FIRUZ/N0461F350 P500 MOTMO/N0458F360 P500 GERRY/N0460F350 P500 ATROL DCT BAVRO J129 KAPMI J186 DELDA J122 BIREB |
| Aircraft | A320/M-SDE3FGHIRWY/LB1 |
Departure
| Time | 2026-04-25 16:51 |
|---|---|
| Airport | Almaty International Airport (UAAA) |
Arrival
| Time | N/A |
|---|---|
| Airport | Skardu International Airport (OPSD) |
| Time | Latitude | Longitude | Altitude | Speed | Heading |
|---|---|---|---|---|---|
| 2026-04-25 16:38 | 43.34911 | 77.01336 | 2229 ft | 0 kts | 245° |
| 2026-04-25 16:39 | 43.34914 | 77.01345 | 2225 ft | 4 kts | 245° |
| 2026-04-25 16:39 | 43.34926 | 77.01378 | 2224 ft | 4 kts | 241° |
| 2026-04-25 16:39 | 43.34939 | 77.01410 | 2227 ft | 4 kts | 234° |
| 2026-04-25 16:39 | 43.34957 | 77.01436 | 2225 ft | 4 kts | 207° |
| 2026-04-25 16:40 | 43.34973 | 77.01442 | 2227 ft | 0 kts | 156° |
| 2026-04-25 16:42 | 43.34971 | 77.01443 | 2227 ft | 0 kts | 156° |
| 2026-04-25 16:42 | 43.34970 | 77.01444 | 2227 ft | 0 kts | 156° |
| 2026-04-25 16:42 | 43.34968 | 77.01445 | 2227 ft | 1 kts | 156° |
| 2026-04-25 16:43 | 43.34965 | 77.01447 | 2225 ft | 1 kts | 156° |
| 2026-04-25 16:43 | 43.34963 | 77.01448 | 2225 ft | 0 kts | 156° |
| 2026-04-25 16:47 | 43.34941 | 77.01461 | 2224 ft | 11 kts | 156° |
| 2026-04-25 16:47 | 43.34858 | 77.01505 | 2226 ft | 14 kts | 172° |
| 2026-04-25 16:47 | 43.34760 | 77.01469 | 2228 ft | 15 kts | 201° |
| 2026-04-25 16:48 | 43.34654 | 77.01452 | 2228 ft | 16 kts | 163° |
| 2026-04-25 16:48 | 43.34541 | 77.01490 | 2227 ft | 17 kts | 158° |
| 2026-04-25 16:48 | 43.34428 | 77.01562 | 2229 ft | 18 kts | 155° |
| 2026-04-25 16:48 | 43.34313 | 77.01634 | 2227 ft | 16 kts | 155° |
| 2026-04-25 16:49 | 43.34292 | 77.01648 | 2230 ft | 1 kts | 155° |
| 2026-04-25 16:49 | 43.34276 | 77.01658 | 2227 ft | 6 kts | 155° |
| 2026-04-25 16:49 | 43.34214 | 77.01697 | 2230 ft | 12 kts | 155° |
| 2026-04-25 16:49 | 43.34162 | 77.01787 | 2229 ft | 13 kts | 94° |
| 2026-04-25 16:50 | 43.34184 | 77.01867 | 2227 ft | 14 kts | 57° |
| 2026-04-25 16:50 | 43.34272 | 77.02044 | 2228 ft | 46 kts | 56° |
| 2026-04-25 16:50 | 43.34724 | 77.02955 | 2227 ft | 122 kts | 56° |
| 2026-04-25 16:50 | 43.35287 | 77.04090 | 2225 ft | 164 kts | 56° |
| 2026-04-25 16:51 | 43.35967 | 77.05461 | 2518 ft | 177 kts | 58° |
| 2026-04-25 16:51 | 43.36663 | 77.06888 | 2999 ft | 183 kts | 58° |
| 2026-04-25 16:51 | 43.37390 | 77.08372 | 3454 ft | 194 kts | 57° |
| 2026-04-25 16:51 | 43.37648 | 77.08896 | 3586 ft | 198 kts | 57° |
| 2026-04-25 16:52 | 43.39029 | 77.11636 | 4209 ft | 226 kts | 54° |
| 2026-04-25 16:52 | 43.40002 | 77.13476 | 4519 ft | 249 kts | 54° |
| 2026-04-25 16:52 | 43.41049 | 77.15435 | 5148 ft | 259 kts | 50° |
| 2026-04-25 16:52 | 43.42540 | 77.16888 | 5679 ft | 273 kts | 16° |
| 2026-04-25 16:53 | 43.46247 | 77.15989 | 7108 ft | 281 kts | 332° |
| 2026-04-25 16:53 | 43.47969 | 77.14701 | 7873 ft | 283 kts | 329° |
| 2026-04-25 16:53 | 43.49687 | 77.13357 | 8631 ft | 286 kts | 329° |
| 2026-04-25 16:54 | 43.51419 | 77.11980 | 8930 ft | 287 kts | 322° |
| 2026-04-25 16:54 | 43.52848 | 77.10093 | 8995 ft | 284 kts | 306° |
| 2026-04-25 16:54 | 43.53832 | 77.07745 | 9125 ft | 285 kts | 289° |
| 2026-04-25 16:54 | 43.54272 | 77.05096 | 9926 ft | 284 kts | 274° |
| 2026-04-25 16:55 | 43.54404 | 77.02331 | 10340 ft | 299 kts | 272° |
| 2026-04-25 16:55 | 43.54623 | 76.99369 | 10475 ft | 322 kts | 280° |
| 2026-04-25 16:55 | 43.55261 | 76.96301 | 10593 ft | 345 kts | 290° |
| 2026-04-25 16:55 | 43.56396 | 76.93287 | 10816 ft | 363 kts | 302° |
| 2026-04-25 16:56 | 43.57978 | 76.90594 | 11339 ft | 370 kts | 312° |
| 2026-04-25 16:56 | 43.59769 | 76.88027 | 11975 ft | 372 kts | 311° |
| 2026-04-25 16:56 | 43.61570 | 76.85452 | 12625 ft | 373 kts | 311° |
| 2026-04-25 16:56 | 43.63377 | 76.82868 | 13273 ft | 375 kts | 311° |
| 2026-04-25 16:57 | 43.65196 | 76.80268 | 13921 ft | 377 kts | 311° |
| 2026-04-25 16:57 | 43.65809 | 76.79391 | 14112 ft | 378 kts | 311° |
| 2026-04-25 16:57 | 43.68854 | 76.75028 | 15041 ft | 381 kts | 311° |
| 2026-04-25 16:57 | 43.70550 | 76.72226 | 15607 ft | 380 kts | 300° |
| 2026-04-25 16:58 | 43.71697 | 76.68940 | 16158 ft | 379 kts | 287° |
| 2026-04-25 16:58 | 43.72195 | 76.65367 | 16723 ft | 381 kts | 272° |
| 2026-04-25 16:58 | 43.72001 | 76.61716 | 17290 ft | 384 kts | 258° |
| 2026-04-25 16:58 | 43.71115 | 76.58224 | 17852 ft | 389 kts | 244° |
| 2026-04-25 16:59 | 43.69524 | 76.55168 | 18380 ft | 397 kts | 227° |
| 2026-04-25 16:59 | 43.67272 | 76.52905 | 18840 ft | 407 kts | 210° |
| 2026-04-25 16:59 | 43.64547 | 76.51686 | 19309 ft | 417 kts | 195° |
| 2026-04-25 16:59 | 43.61693 | 76.50912 | 19806 ft | 418 kts | 196° |
| 2026-04-25 17:00 | 43.58856 | 76.50025 | 20287 ft | 419 kts | 197° |
| 2026-04-25 17:00 | 43.56018 | 76.49061 | 20748 ft | 420 kts | 198° |
| 2026-04-25 17:00 | 43.53177 | 76.48074 | 21182 ft | 422 kts | 198° |
| 2026-04-25 17:00 | 43.50323 | 76.47097 | 21612 ft | 424 kts | 198° |
| 2026-04-25 17:01 | 43.47456 | 76.46138 | 22012 ft | 425 kts | 198° |
| 2026-04-25 17:01 | 43.44572 | 76.45193 | 22415 ft | 427 kts | 197° |
| 2026-04-25 17:01 | 43.41674 | 76.44261 | 22797 ft | 428 kts | 197° |
| 2026-04-25 17:01 | 43.38763 | 76.43335 | 23163 ft | 430 kts | 197° |
| 2026-04-25 17:02 | 43.35847 | 76.42405 | 23543 ft | 431 kts | 197° |
| 2026-04-25 17:02 | 43.32919 | 76.41471 | 23874 ft | 432 kts | 197° |
| 2026-04-25 17:02 | 43.29984 | 76.40530 | 24178 ft | 434 kts | 197° |
| 2026-04-25 17:02 | 43.29032 | 76.40223 | 24286 ft | 434 kts | 197° |
| 2026-04-25 17:03 | 43.24124 | 76.38645 | 24828 ft | 435 kts | 197° |
| 2026-04-25 17:03 | 43.21144 | 76.37692 | 25281 ft | 433 kts | 197° |
| 2026-04-25 17:03 | 43.18254 | 76.36771 | 25748 ft | 431 kts | 197° |
| 2026-04-25 17:03 | 43.15305 | 76.35830 | 26217 ft | 429 kts | 197° |
| 2026-04-25 17:04 | 43.12402 | 76.34902 | 26678 ft | 427 kts | 198° |
| 2026-04-25 17:04 | 43.09551 | 76.33992 | 27112 ft | 426 kts | 198° |
| 2026-04-25 17:04 | 43.06674 | 76.33071 | 27584 ft | 424 kts | 198° |
| 2026-04-25 17:04 | 43.03811 | 76.32156 | 28057 ft | 422 kts | 198° |
| 2026-04-25 17:05 | 43.00961 | 76.31248 | 28542 ft | 419 kts | 198° |
| 2026-04-25 17:05 | 42.95305 | 76.29458 | 29569 ft | 415 kts | 198° |
| 2026-04-25 17:05 | 42.93411 | 76.28858 | 29933 ft | 413 kts | 198° |
| 2026-04-25 17:06 | 42.90615 | 76.27973 | 30426 ft | 412 kts | 198° |
| 2026-04-25 17:06 | 42.87839 | 76.27093 | 30842 ft | 409 kts | 198° |
| 2026-04-25 17:06 | 42.85065 | 76.26212 | 31276 ft | 407 kts | 199° |
| 2026-04-25 17:06 | 42.82319 | 76.25336 | 31725 ft | 404 kts | 199° |
| 2026-04-25 17:07 | 42.79585 | 76.24467 | 32172 ft | 402 kts | 199° |
| 2026-04-25 17:07 | 42.76864 | 76.23607 | 32631 ft | 400 kts | 199° |
| 2026-04-25 17:07 | 42.74161 | 76.22757 | 33103 ft | 397 kts | 199° |
| 2026-04-25 17:07 | 42.71478 | 76.21916 | 33567 ft | 395 kts | 199° |
| 2026-04-25 17:08 | 42.68811 | 76.21076 | 33969 ft | 393 kts | 199° |
| 2026-04-25 17:08 | 42.66150 | 76.20236 | 34253 ft | 392 kts | 199° |
| 2026-04-25 17:08 | 42.63497 | 76.19401 | 34574 ft | 391 kts | 199° |
| 2026-04-25 17:08 | 42.60846 | 76.18571 | 34843 ft | 391 kts | 199° |
| 2026-04-25 17:09 | 42.58194 | 76.17741 | 35092 ft | 391 kts | 199° |
| 2026-04-25 17:09 | 42.55544 | 76.16912 | 35323 ft | 391 kts | 199° |
| 2026-04-25 17:09 | 42.52891 | 76.16083 | 35581 ft | 391 kts | 199° |
| 2026-04-25 17:09 | 42.50240 | 76.15254 | 35829 ft | 391 kts | 199° |
| 2026-04-25 17:10 | 42.47678 | 76.14240 | 36064 ft | 386 kts | 206° |
| 2026-04-25 17:10 | 42.45254 | 76.12730 | 36185 ft | 382 kts | 213° |
| 2026-04-25 17:10 | 42.40967 | 76.08468 | 36219 ft | 385 kts | 230° |
| 2026-04-25 17:11 | 42.37771 | 76.02606 | 36222 ft | 390 kts | 237° |
| 2026-04-25 17:11 | 42.34708 | 75.96505 | 36225 ft | 394 kts | 237° |
| 2026-04-25 17:12 | 42.31621 | 75.90386 | 36231 ft | 395 kts | 236° |
| 2026-04-25 17:12 | 42.28503 | 75.84280 | 36232 ft | 395 kts | 236° |
| 2026-04-25 17:13 | 42.25885 | 75.79166 | 36232 ft | 395 kts | 236° |
| 2026-04-25 17:13 | 42.22239 | 75.72067 | 36237 ft | 396 kts | 236° |
| 2026-04-25 17:14 | 42.19092 | 75.65950 | 36243 ft | 397 kts | 236° |
| 2026-04-25 17:14 | 42.15936 | 75.59834 | 36248 ft | 398 kts | 236° |
| 2026-04-25 17:15 | 42.12769 | 75.53698 | 36258 ft | 399 kts | 236° |
| 2026-04-25 17:15 | 42.09597 | 75.47563 | 36263 ft | 399 kts | 236° |
| 2026-04-25 17:16 | 42.06412 | 75.41427 | 36269 ft | 401 kts | 236° |
| 2026-04-25 17:16 | 42.03219 | 75.35273 | 36277 ft | 401 kts | 236° |
| 2026-04-25 17:17 | 42.00023 | 75.29117 | 36289 ft | 401 kts | 236° |
| 2026-04-25 17:17 | 41.96817 | 75.22977 | 36293 ft | 402 kts | 236° |
| 2026-04-25 17:18 | 41.93600 | 75.16830 | 36303 ft | 403 kts | 236° |
| 2026-04-25 17:18 | 41.90376 | 75.10682 | 36306 ft | 403 kts | 236° |
| 2026-04-25 17:19 | 41.87144 | 75.04531 | 36313 ft | 403 kts | 236° |
| 2026-04-25 17:19 | 41.83906 | 74.98381 | 36308 ft | 404 kts | 236° |
| 2026-04-25 17:20 | 41.80659 | 74.92223 | 36308 ft | 405 kts | 236° |
| 2026-04-25 17:20 | 41.77413 | 74.86068 | 36302 ft | 405 kts | 236° |
| 2026-04-25 17:21 | 41.74157 | 74.79891 | 36302 ft | 406 kts | 236° |
| 2026-04-25 17:21 | 41.70888 | 74.73713 | 36302 ft | 407 kts | 236° |
| 2026-04-25 17:22 | 41.68163 | 74.68579 | 36297 ft | 407 kts | 236° |
| 2026-04-25 17:22 | 41.64317 | 74.61350 | 36297 ft | 408 kts | 235° |
| 2026-04-25 17:23 | 41.61045 | 74.55205 | 36301 ft | 408 kts | 236° |
| 2026-04-25 17:23 | 41.57747 | 74.49026 | 36276 ft | 408 kts | 235° |
| 2026-04-25 17:24 | 41.54441 | 74.42865 | 36262 ft | 408 kts | 235° |
| 2026-04-25 17:24 | 41.51122 | 74.36686 | 36287 ft | 410 kts | 236° |
| 2026-04-25 17:25 | 41.47793 | 74.30481 | 36291 ft | 411 kts | 236° |
| 2026-04-25 17:25 | 41.44460 | 74.24283 | 36296 ft | 411 kts | 235° |
| 2026-04-25 17:26 | 41.41116 | 74.18093 | 36294 ft | 411 kts | 235° |
| 2026-04-25 17:26 | 41.37768 | 74.11907 | 36296 ft | 412 kts | 235° |
| 2026-04-25 17:27 | 41.34417 | 74.05719 | 36299 ft | 412 kts | 235° |
| 2026-04-25 17:27 | 41.32190 | 74.01617 | 36298 ft | 413 kts | 235° |
| 2026-04-25 17:28 | 41.27602 | 73.93479 | 36297 ft | 414 kts | 233° |
| 2026-04-25 17:28 | 41.24052 | 73.87454 | 36298 ft | 414 kts | 233° |
| 2026-04-25 17:29 | 41.20499 | 73.81408 | 36302 ft | 415 kts | 233° |
| 2026-04-25 17:29 | 41.16965 | 73.75342 | 36301 ft | 416 kts | 234° |
| 2026-04-25 17:30 | 41.13435 | 73.69277 | 36295 ft | 415 kts | 233° |
| 2026-04-25 17:30 | 41.09887 | 73.63205 | 36292 ft | 417 kts | 234° |
| 2026-04-25 17:31 | 41.06325 | 73.57142 | 36283 ft | 417 kts | 233° |
| 2026-04-25 17:31 | 41.02760 | 73.51080 | 36274 ft | 417 kts | 234° |
| 2026-04-25 17:32 | 40.99194 | 73.45018 | 36266 ft | 418 kts | 234° |
| 2026-04-25 17:32 | 40.95620 | 73.38948 | 36259 ft | 418 kts | 234° |
| 2026-04-25 17:33 | 40.92037 | 73.32879 | 36243 ft | 419 kts | 234° |
| 2026-04-25 17:33 | 40.88444 | 73.26804 | 36244 ft | 419 kts | 234° |
| 2026-04-25 17:34 | 40.84841 | 73.20733 | 36237 ft | 420 kts | 234° |
| 2026-04-25 17:34 | 40.81231 | 73.14665 | 36225 ft | 420 kts | 233° |
| 2026-04-25 17:35 | 40.77619 | 73.08600 | 36213 ft | 420 kts | 234° |
| 2026-04-25 17:35 | 40.74002 | 73.02534 | 36206 ft | 421 kts | 234° |
| 2026-04-25 17:36 | 40.70378 | 72.96466 | 36201 ft | 422 kts | 234° |
| 2026-04-25 17:36 | 40.66740 | 72.90400 | 36200 ft | 422 kts | 234° |
| 2026-04-25 17:37 | 40.63094 | 72.84336 | 36201 ft | 423 kts | 233° |
| 2026-04-25 17:37 | 40.58697 | 72.79163 | 36197 ft | 430 kts | 214° |
| 2026-04-25 17:38 | 40.55139 | 72.76811 | 36194 ft | 433 kts | 208° |
| 2026-04-25 17:38 | 40.47865 | 72.72336 | 36168 ft | 434 kts | 209° |
| 2026-04-25 17:39 | 40.42393 | 72.68952 | 36182 ft | 435 kts | 209° |
| 2026-04-25 17:39 | 40.36902 | 72.65572 | 36202 ft | 436 kts | 209° |
| 2026-04-25 17:40 | 40.31405 | 72.62189 | 36227 ft | 437 kts | 209° |
| 2026-04-25 17:40 | 40.25894 | 72.58824 | 36248 ft | 437 kts | 207° |
| 2026-04-25 17:41 | 40.22965 | 72.57681 | 36251 ft | 445 kts | 192° |
| 2026-04-25 17:41 | 40.19847 | 72.57636 | 36258 ft | 453 kts | 176° |
| 2026-04-25 17:41 | 40.13600 | 72.58929 | 36267 ft | 455 kts | 175° |
| 2026-04-25 17:42 | 40.07342 | 72.60303 | 36285 ft | 457 kts | 175° |
| 2026-04-25 17:42 | 40.01064 | 72.61681 | 36305 ft | 457 kts | 175° |
| 2026-04-25 17:43 | 39.94815 | 72.63024 | 36337 ft | 458 kts | 175° |
| 2026-04-25 17:43 | 39.88531 | 72.64365 | 36342 ft | 457 kts | 175° |
| 2026-04-25 17:44 | 39.82247 | 72.65699 | 36356 ft | 458 kts | 175° |
| 2026-04-25 17:44 | 39.75967 | 72.67031 | 36364 ft | 457 kts | 175° |
| 2026-04-25 17:45 | 39.71765 | 72.67924 | 36362 ft | 457 kts | 175° |
| 2026-04-25 17:45 | 39.63404 | 72.69709 | 36373 ft | 458 kts | 175° |
| 2026-04-25 17:46 | 39.57101 | 72.71045 | 36360 ft | 460 kts | 174° |
| 2026-04-25 17:46 | 39.50756 | 72.72380 | 36355 ft | 463 kts | 174° |
| 2026-04-25 17:47 | 39.44375 | 72.73726 | 36365 ft | 466 kts | 174° |
| 2026-04-25 17:47 | 39.37973 | 72.75086 | 36375 ft | 467 kts | 174° |
| 2026-04-25 17:48 | 39.28389 | 72.77090 | 36406 ft | 468 kts | 174° |
| 2026-04-25 17:49 | 39.21958 | 72.78441 | 36408 ft | 468 kts | 175° |
| 2026-04-25 17:49 | 39.15533 | 72.79787 | 36417 ft | 468 kts | 175° |
| 2026-04-25 17:50 | 39.09096 | 72.81146 | 36430 ft | 469 kts | 174° |
| 2026-04-25 17:50 | 39.02665 | 72.82493 | 36425 ft | 468 kts | 175° |
| 2026-04-25 17:51 | 38.96224 | 72.83826 | 36430 ft | 469 kts | 175° |
| 2026-04-25 17:51 | 38.89785 | 72.85158 | 36415 ft | 468 kts | 175° |
| 2026-04-25 17:52 | 38.84426 | 72.86266 | 36419 ft | 469 kts | 175° |
| 2026-04-25 17:52 | 38.77974 | 72.87601 | 36425 ft | 469 kts | 175° |
| 2026-04-25 17:53 | 38.71533 | 72.88932 | 36418 ft | 469 kts | 175° |
| 2026-04-25 17:53 | 38.65099 | 72.90265 | 36413 ft | 468 kts | 175° |
| 2026-04-25 17:54 | 38.58673 | 72.91605 | 36395 ft | 467 kts | 175° |
| 2026-04-25 17:54 | 38.52255 | 72.92931 | 36397 ft | 468 kts | 175° |
| 2026-04-25 17:55 | 38.45850 | 72.94241 | 36397 ft | 467 kts | 175° |
| 2026-04-25 17:55 | 38.39435 | 72.95546 | 36392 ft | 467 kts | 175° |
| 2026-04-25 17:56 | 38.33028 | 72.96852 | 36386 ft | 465 kts | 175° |
| 2026-04-25 17:56 | 38.26621 | 72.98155 | 36391 ft | 467 kts | 175° |
| 2026-04-25 17:57 | 38.20201 | 72.99472 | 36391 ft | 467 kts | 175° |
| 2026-04-25 17:57 | 38.13792 | 73.00778 | 36386 ft | 466 kts | 175° |
| 2026-04-25 17:58 | 38.11673 | 73.01209 | 36373 ft | 466 kts | 175° |